sensor_id;sensor_type;location;lat;lon;timestamp;P1;durP1;ratioP1;P2;durP2;ratioP2
4748;SDS011;2388;53.582;9.962;2023-03-11T00:01:04;6.85;;;6.05;;
4748;SDS011;2388;53.582;9.962;2023-03-11T00:03:29;6.57;;;5.97;;
4748;SDS011;2388;53.582;9.962;2023-03-11T00:05:55;6.33;;;5.67;;
4748;SDS011;2388;53.582;9.962;2023-03-11T00:08:24;8.02;;;6.22;;
4748;SDS011;2388;53.582;9.962;2023-03-11T00:10:51;7.70;;;6.90;;
4748;SDS011;2388;53.582;9.962;2023-03-11T00:13:19;7.43;;;6.30;;
4748;SDS011;2388;53.582;9.962;2023-03-11T00:15:45;10.77;;;7.03;;
4748;SDS011;2388;53.582;9.962;2023-03-11T00:18:13;7.50;;;6.80;;
4748;SDS011;2388;53.582;9.962;2023-03-11T00:20:40;7.27;;;6.57;;
4748;SDS011;2388;53.582;9.962;2023-03-11T00:23:07;9.00;;;7.45;;
4748;SDS011;2388;53.582;9.962;2023-03-11T00:25:35;13.88;;;8.25;;
4748;SDS011;2388;53.582;9.962;2023-03-11T00:28:01;8.85;;;7.95;;
4748;SDS011;2388;53.582;9.962;2023-03-11T00:30:28;8.68;;;6.55;;
4748;SDS011;2388;53.582;9.962;2023-03-11T00:32:55;9.27;;;7.47;;
4748;SDS011;2388;53.582;9.962;2023-03-11T00:35:25;8.90;;;7.57;;
4748;SDS011;2388;53.582;9.962;2023-03-11T00:37:56;10.13;;;7.97;;
4748;SDS011;2388;53.582;9.962;2023-03-11T00:40:25;8.15;;;7.35;;
4748;SDS011;2388;53.582;9.962;2023-03-11T00:42:52;9.57;;;7.43;;
4748;SDS011;2388;53.582;9.962;2023-03-11T00:45:18;11.00;;;8.07;;
4748;SDS011;2388;53.582;9.962;2023-03-11T00:47:44;11.35;;;7.82;;
4748;SDS011;2388;53.582;9.962;2023-03-11T00:50:14;8.10;;;7.30;;
4748;SDS011;2388;53.582;9.962;2023-03-11T00:52:42;10.63;;;8.05;;
4748;SDS011;2388;53.582;9.962;2023-03-11T00:55:09;10.13;;;8.30;;
4748;SDS011;2388;53.582;9.962;2023-03-11T00:57:37;8.90;;;7.30;;
4748;SDS011;2388;53.582;9.962;2023-03-11T01:00:04;9.27;;;7.72;;
4748;SDS011;2388;53.582;9.962;2023-03-11T01:02:34;10.43;;;7.95;;
4748;SDS011;2388;53.582;9.962;2023-03-11T01:05:00;9.07;;;8.18;;
4748;SDS011;2388;53.582;9.962;2023-03-11T01:07:25;11.00;;;8.50;;
4748;SDS011;2388;53.582;9.962;2023-03-11T01:09:51;10.60;;;7.57;;
4748;SDS011;2388;53.582;9.962;2023-03-11T01:12:16;9.20;;;8.10;;
4748;SDS011;2388;53.582;9.962;2023-03-11T01:14:42;9.83;;;8.10;;
4748;SDS011;2388;53.582;9.962;2023-03-11T01:17:08;9.67;;;7.37;;
4748;SDS011;2388;53.582;9.962;2023-03-11T01:19:33;10.00;;;8.07;;
4748;SDS011;2388;53.582;9.962;2023-03-11T01:21:59;10.80;;;7.77;;
4748;SDS011;2388;53.582;9.962;2023-03-11T01:24:24;10.30;;;7.60;;
4748;SDS011;2388;53.582;9.962;2023-03-11T01:26:50;10.40;;;8.37;;
4748;SDS011;2388;53.582;9.962;2023-03-11T01:29:15;7.93;;;7.00;;
4748;SDS011;2388;53.582;9.962;2023-03-11T01:31:41;7.70;;;6.83;;
4748;SDS011;2388;53.582;9.962;2023-03-11T01:34:06;13.60;;;8.43;;
4748;SDS011;2388;53.582;9.962;2023-03-11T01:36:32;10.10;;;8.03;;
4748;SDS011;2388;53.582;9.962;2023-03-11T01:38:57;8.33;;;7.53;;
4748;SDS011;2388;53.582;9.962;2023-03-11T01:41:23;9.13;;;7.50;;
4748;SDS011;2388;53.582;9.962;2023-03-11T01:43:50;8.40;;;7.30;;
4748;SDS011;2388;53.582;9.962;2023-03-11T01:46:25;7.72;;;6.90;;
4748;SDS011;2388;53.582;9.962;2023-03-11T01:48:56;9.35;;;7.53;;
4748;SDS011;2388;53.582;9.962;2023-03-11T01:51:42;7.78;;;6.95;;
4748;SDS011;2388;53.582;9.962;2023-03-11T01:54:17;10.50;;;7.10;;
4748;SDS011;2388;53.582;9.962;2023-03-11T01:56:47;10.07;;;7.38;;
4748;SDS011;2388;53.582;9.962;2023-03-11T01:59:16;8.60;;;7.30;;
4748;SDS011;2388;53.582;9.962;2023-03-11T02:01:51;9.93;;;7.63;;
4748;SDS011;2388;53.582;9.962;2023-03-11T02:04:27;8.60;;;7.45;;
4748;SDS011;2388;53.582;9.962;2023-03-11T02:06:53;9.32;;;7.93;;
4748;SDS011;2388;53.582;9.962;2023-03-11T02:09:20;8.82;;;7.55;;
4748;SDS011;2388;53.582;9.962;2023-03-11T02:11:48;9.13;;;7.53;;
4748;SDS011;2388;53.582;9.962;2023-03-11T02:14:13;8.63;;;7.03;;
4748;SDS011;2388;53.582;9.962;2023-03-11T02:16:39;11.17;;;7.20;;
4748;SDS011;2388;53.582;9.962;2023-03-11T02:19:14;7.73;;;6.93;;
4748;SDS011;2388;53.582;9.962;2023-03-11T02:21:55;9.18;;;7.60;;
4748;SDS011;2388;53.582;9.962;2023-03-11T02:24:22;7.57;;;6.85;;
4748;SDS011;2388;53.582;9.962;2023-03-11T02:27:00;7.97;;;7.22;;
4748;SDS011;2388;53.582;9.962;2023-03-11T02:29:31;10.27;;;7.13;;
4748;SDS011;2388;53.582;9.962;2023-03-11T02:31:58;7.43;;;6.43;;
4748;SDS011;2388;53.582;9.962;2023-03-11T02:34:29;9.75;;;7.15;;
4748;SDS011;2388;53.582;9.962;2023-03-11T02:36:58;7.60;;;6.90;;
4748;SDS011;2388;53.582;9.962;2023-03-11T02:39:28;8.43;;;7.22;;
4748;SDS011;2388;53.582;9.962;2023-03-11T02:41:58;7.50;;;6.70;;
4748;SDS011;2388;53.582;9.962;2023-03-11T02:44:26;8.90;;;7.25;;
4748;SDS011;2388;53.582;9.962;2023-03-11T02:46:52;8.63;;;7.82;;
4748;SDS011;2388;53.582;9.962;2023-03-11T02:49:18;8.37;;;7.50;;
4748;SDS011;2388;53.582;9.962;2023-03-11T02:51:45;7.93;;;7.15;;
4748;SDS011;2388;53.582;9.962;2023-03-11T02:54:11;10.07;;;7.60;;
4748;SDS011;2388;53.582;9.962;2023-03-11T02:56:36;7.70;;;7.00;;
4748;SDS011;2388;53.582;9.962;2023-03-11T02:59:02;9.33;;;7.50;;
4748;SDS011;2388;53.582;9.962;2023-03-11T03:01:27;8.23;;;7.20;;
4748;SDS011;2388;53.582;9.962;2023-03-11T03:03:53;9.07;;;7.30;;
4748;SDS011;2388;53.582;9.962;2023-03-11T03:06:19;7.50;;;6.70;;
4748;SDS011;2388;53.582;9.962;2023-03-11T03:08:44;9.27;;;7.67;;
4748;SDS011;2388;53.582;9.962;2023-03-11T03:11:10;7.27;;;6.53;;
4748;SDS011;2388;53.582;9.962;2023-03-11T03:13:35;6.83;;;6.23;;
4748;SDS011;2388;53.582;9.962;2023-03-11T03:16:01;7.03;;;5.80;;
4748;SDS011;2388;53.582;9.962;2023-03-11T03:18:27;7.78;;;7.03;;
4748;SDS011;2388;53.582;9.962;2023-03-11T03:20:53;9.77;;;6.73;;
4748;SDS011;2388;53.582;9.962;2023-03-11T03:23:19;9.33;;;6.30;;
4748;SDS011;2388;53.582;9.962;2023-03-11T03:25:44;6.40;;;5.80;;
4748;SDS011;2388;53.582;9.962;2023-03-11T03:28:11;9.77;;;6.23;;
4748;SDS011;2388;53.582;9.962;2023-03-11T03:30:37;7.47;;;6.43;;
4748;SDS011;2388;53.582;9.962;2023-03-11T03:33:03;7.13;;;6.35;;
4748;SDS011;2388;53.582;9.962;2023-03-11T03:35:29;6.80;;;6.20;;
4748;SDS011;2388;53.582;9.962;2023-03-11T03:37:55;7.17;;;6.50;;
4748;SDS011;2388;53.582;9.962;2023-03-11T03:40:20;9.30;;;6.93;;
4748;SDS011;2388;53.582;9.962;2023-03-11T03:42:46;10.67;;;6.70;;
4748;SDS011;2388;53.582;9.962;2023-03-11T03:45:11;8.03;;;6.93;;
4748;SDS011;2388;53.582;9.962;2023-03-11T03:47:37;8.87;;;7.30;;
4748;SDS011;2388;53.582;9.962;2023-03-11T03:50:03;8.03;;;6.67;;
4748;SDS011;2388;53.582;9.962;2023-03-11T03:52:31;7.50;;;6.80;;
4748;SDS011;2388;53.582;9.962;2023-03-11T03:54:56;6.80;;;6.10;;
4748;SDS011;2388;53.582;9.962;2023-03-11T03:57:22;6.83;;;6.10;;
4748;SDS011;2388;53.582;9.962;2023-03-11T03:59:47;9.10;;;6.90;;
4748;SDS011;2388;53.582;9.962;2023-03-11T04:02:13;7.50;;;6.37;;
4748;SDS011;2388;53.582;9.962;2023-03-11T04:04:38;6.77;;;5.87;;
4748;SDS011;2388;53.582;9.962;2023-03-11T04:07:04;6.93;;;6.30;;
4748;SDS011;2388;53.582;9.962;2023-03-11T04:09:30;6.43;;;5.90;;
4748;SDS011;2388;53.582;9.962;2023-03-11T04:11:56;7.53;;;6.20;;
4748;SDS011;2388;53.582;9.962;2023-03-11T04:14:21;6.57;;;5.97;;
4748;SDS011;2388;53.582;9.962;2023-03-11T04:16:47;6.40;;;5.70;;
4748;SDS011;2388;53.582;9.962;2023-03-11T04:19:13;5.77;;;4.90;;
4748;SDS011;2388;53.582;9.962;2023-03-11T04:21:38;5.67;;;5.00;;
4748;SDS011;2388;53.582;9.962;2023-03-11T04:24:04;6.63;;;5.60;;
4748;SDS011;2388;53.582;9.962;2023-03-11T04:26:30;6.40;;;5.40;;
4748;SDS011;2388;53.582;9.962;2023-03-11T04:28:55;4.87;;;4.37;;
4748;SDS011;2388;53.582;9.962;2023-03-11T04:31:21;6.03;;;5.47;;
4748;SDS011;2388;53.582;9.962;2023-03-11T04:33:46;6.57;;;5.87;;
4748;SDS011;2388;53.582;9.962;2023-03-11T04:36:12;8.10;;;5.83;;
4748;SDS011;2388;53.582;9.962;2023-03-11T04:38:37;6.63;;;5.93;;
4748;SDS011;2388;53.582;9.962;2023-03-11T04:41:04;6.50;;;5.83;;
4748;SDS011;2388;53.582;9.962;2023-03-11T04:43:30;5.72;;;5.20;;
4748;SDS011;2388;53.582;9.962;2023-03-11T04:45:56;6.03;;;5.50;;
4748;SDS011;2388;53.582;9.962;2023-03-11T04:48:21;5.97;;;5.37;;
4748;SDS011;2388;53.582;9.962;2023-03-11T04:50:48;5.88;;;5.28;;
4748;SDS011;2388;53.582;9.962;2023-03-11T04:53:14;5.97;;;5.47;;
4748;SDS011;2388;53.582;9.962;2023-03-11T04:55:39;5.60;;;5.10;;
4748;SDS011;2388;53.582;9.962;2023-03-11T04:58:05;7.10;;;6.10;;
4748;SDS011;2388;53.582;9.962;2023-03-11T05:00:31;6.23;;;5.23;;
4748;SDS011;2388;53.582;9.962;2023-03-11T05:02:56;5.57;;;5.07;;
4748;SDS011;2388;53.582;9.962;2023-03-11T05:05:22;6.23;;;5.40;;
4748;SDS011;2388;53.582;9.962;2023-03-11T05:07:47;6.77;;;5.30;;
4748;SDS011;2388;53.582;9.962;2023-03-11T05:10:13;7.70;;;5.20;;
4748;SDS011;2388;53.582;9.962;2023-03-11T05:12:46;6.07;;;5.20;;
4748;SDS011;2388;53.582;9.962;2023-03-11T05:15:14;5.13;;;4.50;;
4748;SDS011;2388;53.582;9.962;2023-03-11T05:17:40;5.20;;;4.50;;
4748;SDS011;2388;53.582;9.962;2023-03-11T05:20:06;5.57;;;4.13;;
4748;SDS011;2388;53.582;9.962;2023-03-11T05:22:32;4.80;;;4.40;;
4748;SDS011;2388;53.582;9.962;2023-03-11T05:24:58;5.18;;;4.68;;
4748;SDS011;2388;53.582;9.962;2023-03-11T05:27:23;4.87;;;4.40;;
4748;SDS011;2388;53.582;9.962;2023-03-11T05:29:49;5.13;;;4.60;;
4748;SDS011;2388;53.582;9.962;2023-03-11T05:32:14;5.80;;;4.20;;
4748;SDS011;2388;53.582;9.962;2023-03-11T05:34:40;5.47;;;4.10;;
4748;SDS011;2388;53.582;9.962;2023-03-11T05:37:05;5.13;;;4.63;;
4748;SDS011;2388;53.582;9.962;2023-03-11T05:39:31;5.40;;;4.90;;
4748;SDS011;2388;53.582;9.962;2023-03-11T05:41:58;5.57;;;5.07;;
4748;SDS011;2388;53.582;9.962;2023-03-11T05:44:23;7.73;;;5.83;;
4748;SDS011;2388;53.582;9.962;2023-03-11T05:46:49;5.53;;;5.00;;
4748;SDS011;2388;53.582;9.962;2023-03-11T05:49:14;6.30;;;5.40;;
4748;SDS011;2388;53.582;9.962;2023-03-11T05:51:40;12.60;;;5.53;;
4748;SDS011;2388;53.582;9.962;2023-03-11T05:54:05;5.40;;;4.93;;
4748;SDS011;2388;53.582;9.962;2023-03-11T05:56:38;6.28;;;5.60;;
4748;SDS011;2388;53.582;9.962;2023-03-11T05:59:08;5.72;;;5.13;;
4748;SDS011;2388;53.582;9.962;2023-03-11T06:01:35;5.80;;;5.20;;
4748;SDS011;2388;53.582;9.962;2023-03-11T06:04:01;6.70;;;5.50;;
4748;SDS011;2388;53.582;9.962;2023-03-11T06:06:27;9.57;;;5.72;;
4748;SDS011;2388;53.582;9.962;2023-03-11T06:08:54;5.57;;;5.10;;
4748;SDS011;2388;53.582;9.962;2023-03-11T06:11:19;6.00;;;5.50;;
4748;SDS011;2388;53.582;9.962;2023-03-11T06:13:45;6.83;;;5.40;;
4748;SDS011;2388;53.582;9.962;2023-03-11T06:16:11;5.73;;;5.23;;
4748;SDS011;2388;53.582;9.962;2023-03-11T06:18:36;6.63;;;5.87;;
4748;SDS011;2388;53.582;9.962;2023-03-11T06:21:02;5.83;;;4.83;;
4748;SDS011;2388;53.582;9.962;2023-03-11T06:23:28;7.68;;;6.13;;
4748;SDS011;2388;53.582;9.962;2023-03-11T06:25:58;5.57;;;5.10;;
4748;SDS011;2388;53.582;9.962;2023-03-11T06:28:26;5.53;;;5.05;;
4748;SDS011;2388;53.582;9.962;2023-03-11T06:30:52;5.43;;;4.93;;
4748;SDS011;2388;53.582;9.962;2023-03-11T06:33:21;5.88;;;5.30;;
4748;SDS011;2388;53.582;9.962;2023-03-11T06:35:56;5.78;;;4.93;;
4748;SDS011;2388;53.582;9.962;2023-03-11T06:38:22;5.72;;;5.05;;
4748;SDS011;2388;53.582;9.962;2023-03-11T06:40:48;6.23;;;5.10;;
4748;SDS011;2388;53.582;9.962;2023-03-11T06:43:13;5.80;;;5.30;;
4748;SDS011;2388;53.582;9.962;2023-03-11T06:45:39;10.63;;;5.93;;
4748;SDS011;2388;53.582;9.962;2023-03-11T06:48:04;6.20;;;5.60;;
4748;SDS011;2388;53.582;9.962;2023-03-11T06:50:30;6.43;;;4.60;;
4748;SDS011;2388;53.582;9.962;2023-03-11T06:52:56;7.00;;;5.70;;
4748;SDS011;2388;53.582;9.962;2023-03-11T06:55:22;8.68;;;5.05;;
4748;SDS011;2388;53.582;9.962;2023-03-11T06:57:47;7.50;;;5.67;;
4748;SDS011;2388;53.582;9.962;2023-03-11T07:00:13;5.67;;;5.13;;
4748;SDS011;2388;53.582;9.962;2023-03-11T07:02:39;9.23;;;7.25;;
4748;SDS011;2388;53.582;9.962;2023-03-11T07:05:05;18.30;;;13.07;;
4748;SDS011;2388;53.582;9.962;2023-03-11T07:07:31;11.57;;;9.68;;
4748;SDS011;2388;53.582;9.962;2023-03-11T07:09:56;5.07;;;4.57;;
4748;SDS011;2388;53.582;9.962;2023-03-11T07:12:22;5.13;;;4.63;;
4748;SDS011;2388;53.582;9.962;2023-03-11T07:14:53;6.60;;;4.75;;
4748;SDS011;2388;53.582;9.962;2023-03-11T07:17:20;7.55;;;5.53;;
4748;SDS011;2388;53.582;9.962;2023-03-11T07:19:45;4.90;;;4.10;;
4748;SDS011;2388;53.582;9.962;2023-03-11T07:22:11;9.13;;;5.07;;
4748;SDS011;2388;53.582;9.962;2023-03-11T07:24:36;5.60;;;5.10;;
4748;SDS011;2388;53.582;9.962;2023-03-11T07:27:02;5.43;;;4.93;;
4748;SDS011;2388;53.582;9.962;2023-03-11T07:29:27;7.83;;;5.30;;
4748;SDS011;2388;53.582;9.962;2023-03-11T07:31:53;4.87;;;4.47;;
4748;SDS011;2388;53.582;9.962;2023-03-11T07:34:18;4.63;;;4.30;;
4748;SDS011;2388;53.582;9.962;2023-03-11T07:36:44;5.00;;;4.60;;
4748;SDS011;2388;53.582;9.962;2023-03-11T07:39:12;5.90;;;5.23;;
4748;SDS011;2388;53.582;9.962;2023-03-11T07:41:39;5.68;;;5.00;;
4748;SDS011;2388;53.582;9.962;2023-03-11T07:44:04;7.20;;;5.47;;
4748;SDS011;2388;53.582;9.962;2023-03-11T07:46:30;5.40;;;4.90;;
4748;SDS011;2388;53.582;9.962;2023-03-11T07:48:56;6.45;;;4.55;;
4748;SDS011;2388;53.582;9.962;2023-03-11T07:51:23;5.37;;;4.43;;
4748;SDS011;2388;53.582;9.962;2023-03-11T07:53:51;5.40;;;4.90;;
4748;SDS011;2388;53.582;9.962;2023-03-11T07:56:18;5.25;;;4.75;;
4748;SDS011;2388;53.582;9.962;2023-03-11T07:58:44;4.82;;;4.40;;
4748;SDS011;2388;53.582;9.962;2023-03-11T08:01:12;5.38;;;4.88;;
4748;SDS011;2388;53.582;9.962;2023-03-11T08:03:40;7.03;;;4.80;;
4748;SDS011;2388;53.582;9.962;2023-03-11T08:06:16;5.25;;;4.75;;
4748;SDS011;2388;53.582;9.962;2023-03-11T08:08:43;5.40;;;4.15;;
4748;SDS011;2388;53.582;9.962;2023-03-11T08:11:10;4.90;;;4.00;;
4748;SDS011;2388;53.582;9.962;2023-03-11T08:13:37;4.18;;;3.88;;
4748;SDS011;2388;53.582;9.962;2023-03-11T08:16:03;4.30;;;4.00;;
4748;SDS011;2388;53.582;9.962;2023-03-11T08:18:30;4.30;;;4.00;;
4748;SDS011;2388;53.582;9.962;2023-03-11T08:20:56;4.60;;;3.85;;
4748;SDS011;2388;53.582;9.962;2023-03-11T08:23:22;3.77;;;3.47;;
4748;SDS011;2388;53.582;9.962;2023-03-11T08:25:47;3.67;;;3.37;;
4748;SDS011;2388;53.582;9.962;2023-03-11T08:28:13;4.90;;;4.50;;
4748;SDS011;2388;53.582;9.962;2023-03-11T08:30:38;5.00;;;3.83;;
4748;SDS011;2388;53.582;9.962;2023-03-11T08:33:04;3.63;;;3.40;;
4748;SDS011;2388;53.582;9.962;2023-03-11T08:35:30;6.53;;;3.60;;
4748;SDS011;2388;53.582;9.962;2023-03-11T08:37:56;3.42;;;3.10;;
4748;SDS011;2388;53.582;9.962;2023-03-11T08:40:21;3.47;;;3.27;;
4748;SDS011;2388;53.582;9.962;2023-03-11T08:42:47;5.73;;;3.50;;
4748;SDS011;2388;53.582;9.962;2023-03-11T08:45:12;2.90;;;2.70;;
4748;SDS011;2388;53.582;9.962;2023-03-11T08:47:38;3.00;;;2.80;;
4748;SDS011;2388;53.582;9.962;2023-03-11T08:50:10;3.40;;;2.80;;
4748;SDS011;2388;53.582;9.962;2023-03-11T08:52:37;5.70;;;3.22;;
4748;SDS011;2388;53.582;9.962;2023-03-11T08:55:03;6.77;;;5.33;;
4748;SDS011;2388;53.582;9.962;2023-03-11T08:57:29;9.13;;;4.63;;
4748;SDS011;2388;53.582;9.962;2023-03-11T08:59:56;4.43;;;3.15;;
4748;SDS011;2388;53.582;9.962;2023-03-11T09:02:22;2.85;;;2.50;;
4748;SDS011;2388;53.582;9.962;2023-03-11T09:04:49;3.47;;;3.17;;
4748;SDS011;2388;53.582;9.962;2023-03-11T09:07:14;7.47;;;5.90;;
4748;SDS011;2388;53.582;9.962;2023-03-11T09:09:40;8.60;;;7.50;;
4748;SDS011;2388;53.582;9.962;2023-03-11T09:12:06;5.70;;;4.27;;
4748;SDS011;2388;53.582;9.962;2023-03-11T09:14:32;6.15;;;3.53;;
4748;SDS011;2388;53.582;9.962;2023-03-11T09:16:59;2.25;;;2.03;;
4748;SDS011;2388;53.582;9.962;2023-03-11T09:19:24;3.10;;;2.90;;
4748;SDS011;2388;53.582;9.962;2023-03-11T09:21:50;3.20;;;2.53;;
4748;SDS011;2388;53.582;9.962;2023-03-11T09:24:15;2.27;;;2.10;;
4748;SDS011;2388;53.582;9.962;2023-03-11T09:26:41;3.47;;;2.30;;
4748;SDS011;2388;53.582;9.962;2023-03-11T09:29:06;3.30;;;2.63;;
4748;SDS011;2388;53.582;9.962;2023-03-11T09:31:32;2.40;;;1.60;;
4748;SDS011;2388;53.582;9.962;2023-03-11T09:33:57;5.50;;;1.60;;
4748;SDS011;2388;53.582;9.962;2023-03-11T09:36:23;2.20;;;2.10;;
4748;SDS011;2388;53.582;9.962;2023-03-11T09:38:48;1.63;;;1.33;;
4748;SDS011;2388;53.582;9.962;2023-03-11T09:44:10;1.85;;;1.75;;
4748;SDS011;2388;53.582;9.962;2023-03-11T09:46:59;2.47;;;1.65;;
4748;SDS011;2388;53.582;9.962;2023-03-11T09:52:24;1.63;;;1.50;;
4748;SDS011;2388;53.582;9.962;2023-03-11T09:54:52;2.45;;;1.30;;
4748;SDS011;2388;53.582;9.962;2023-03-11T09:57:30;3.70;;;2.03;;
4748;SDS011;2388;53.582;9.962;2023-03-11T09:59:58;1.88;;;1.30;;
4748;SDS011;2388;53.582;9.962;2023-03-11T10:02:26;2.65;;;1.75;;
4748;SDS011;2388;53.582;9.962;2023-03-11T10:07:27;2.58;;;1.50;;
4748;SDS011;2388;53.582;9.962;2023-03-11T10:09:58;2.10;;;1.90;;
4748;SDS011;2388;53.582;9.962;2023-03-11T10:20:50;2.00;;;1.30;;
4748;SDS011;2388;53.582;9.962;2023-03-11T10:26:22;7.30;;;1.83;;
4748;SDS011;2388;53.582;9.962;2023-03-11T10:28:58;1.92;;;1.70;;
4748;SDS011;2388;53.582;9.962;2023-03-11T10:31:26;2.47;;;1.50;;
4748;SDS011;2388;53.582;9.962;2023-03-11T10:33:56;4.55;;;1.58;;
4748;SDS011;2388;53.582;9.962;2023-03-11T10:36:49;1.70;;;1.40;;
4748;SDS011;2388;53.582;9.962;2023-03-11T10:39:21;1.70;;;1.20;;
4748;SDS011;2388;53.582;9.962;2023-03-11T10:41:51;1.50;;;1.40;;
4748;SDS011;2388;53.582;9.962;2023-03-11T10:44:22;2.25;;;1.50;;
4748;SDS011;2388;53.582;9.962;2023-03-11T10:47:02;4.53;;;2.78;;
4748;SDS011;2388;53.582;9.962;2023-03-11T10:49:29;3.25;;;2.60;;
4748;SDS011;2388;53.582;9.962;2023-03-11T10:51:55;14.63;;;8.70;;
4748;SDS011;2388;53.582;9.962;2023-03-11T10:54:32;2.85;;;2.65;;
4748;SDS011;2388;53.582;9.962;2023-03-11T10:56:59;4.85;;;2.60;;
4748;SDS011;2388;53.582;9.962;2023-03-11T11:02:20;2.85;;;2.22;;
4748;SDS011;2388;53.582;9.962;2023-03-11T11:05:04;2.55;;;1.80;;
4748;SDS011;2388;53.582;9.962;2023-03-11T11:07:51;7.07;;;1.67;;
4748;SDS011;2388;53.582;9.962;2023-03-11T11:10:50;3.88;;;1.45;;
4748;SDS011;2388;53.582;9.962;2023-03-11T11:13:20;5.97;;;2.42;;
4748;SDS011;2388;53.582;9.962;2023-03-11T11:18:44;2.80;;;1.50;;
4748;SDS011;2388;53.582;9.962;2023-03-11T11:21:14;3.55;;;2.25;;
4748;SDS011;2388;53.582;9.962;2023-03-11T11:29:41;2.33;;;1.70;;
4748;SDS011;2388;53.582;9.962;2023-03-11T11:32:17;2.93;;;1.47;;
4748;SDS011;2388;53.582;9.962;2023-03-11T11:34:57;3.90;;;1.13;;
4748;SDS011;2388;53.582;9.962;2023-03-11T11:37:54;3.63;;;1.40;;
4748;SDS011;2388;53.582;9.962;2023-03-11T11:45:44;1.60;;;1.10;;
4748;SDS011;2388;53.582;9.962;2023-03-11T11:48:20;3.50;;;1.17;;
4748;SDS011;2388;53.582;9.962;2023-03-11T11:50:53;4.93;;;1.40;;
4748;SDS011;2388;53.582;9.962;2023-03-11T11:56:10;5.97;;;1.30;;
4748;SDS011;2388;53.582;9.962;2023-03-11T11:58:36;3.63;;;1.40;;
4748;SDS011;2388;53.582;9.962;2023-03-11T12:01:14;3.13;;;0.90;;
4748;SDS011;2388;53.582;9.962;2023-03-11T12:04:26;2.00;;;1.07;;
4748;SDS011;2388;53.582;9.962;2023-03-11T12:07:20;2.17;;;0.87;;
4748;SDS011;2388;53.582;9.962;2023-03-11T12:09:57;9.23;;;0.90;;
4748;SDS011;2388;53.582;9.962;2023-03-11T12:12:40;4.00;;;0.80;;
4748;SDS011;2388;53.582;9.962;2023-03-11T12:15:22;1.67;;;0.70;;
4748;SDS011;2388;53.582;9.962;2023-03-11T12:17:53;1.20;;;0.50;;
4748;SDS011;2388;53.582;9.962;2023-03-11T12:20:29;4.40;;;0.80;;
4748;SDS011;2388;53.582;9.962;2023-03-11T12:23:10;3.40;;;0.70;;
4748;SDS011;2388;53.582;9.962;2023-03-11T12:28:56;4.53;;;0.60;;
4748;SDS011;2388;53.582;9.962;2023-03-11T12:31:29;1.23;;;0.50;;
4748;SDS011;2388;53.582;9.962;2023-03-11T12:34:04;2.43;;;0.80;;
4748;SDS011;2388;53.582;9.962;2023-03-11T12:36:35;12.13;;;0.70;;
4748;SDS011;2388;53.582;9.962;2023-03-11T12:39:04;6.57;;;0.50;;
4748;SDS011;2388;53.582;9.962;2023-03-11T12:49:37;3.00;;;0.80;;
4748;SDS011;2388;53.582;9.962;2023-03-11T12:54:36;1.80;;;0.57;;
4748;SDS011;2388;53.582;9.962;2023-03-11T13:02:45;4.83;;;0.50;;
4748;SDS011;2388;53.582;9.962;2023-03-11T13:05:53;3.33;;;0.77;;
4748;SDS011;2388;53.582;9.962;2023-03-11T13:08:44;3.73;;;0.43;;
4748;SDS011;2388;53.582;9.962;2023-03-11T13:16:47;2.17;;;0.50;;
4748;SDS011;2388;53.582;9.962;2023-03-11T13:21:51;3.53;;;0.80;;
4748;SDS011;2388;53.582;9.962;2023-03-11T13:26:54;1.57;;;0.60;;
4748;SDS011;2388;53.582;9.962;2023-03-11T13:40:38;4.90;;;0.87;;
4748;SDS011;2388;53.582;9.962;2023-03-11T13:43:07;3.40;;;1.00;;
4748;SDS011;2388;53.582;9.962;2023-03-11T13:45:38;3.80;;;0.40;;
4748;SDS011;2388;53.582;9.962;2023-03-11T13:50:36;1.73;;;0.53;;
4748;SDS011;2388;53.582;9.962;2023-03-11T13:53:09;1.63;;;0.80;;
4748;SDS011;2388;53.582;9.962;2023-03-11T13:56:00;2.80;;;0.50;;
4748;SDS011;2388;53.582;9.962;2023-03-11T13:58:26;1.90;;;0.53;;
4748;SDS011;2388;53.582;9.962;2023-03-11T14:00:56;1.23;;;0.83;;
4748;SDS011;2388;53.582;9.962;2023-03-11T14:03:24;1.03;;;0.60;;
4748;SDS011;2388;53.582;9.962;2023-03-11T14:06:34;2.47;;;0.77;;
4748;SDS011;2388;53.582;9.962;2023-03-11T14:08:42;1.70;;;0.60;;
4748;SDS011;2388;53.582;9.962;2023-03-11T14:11:23;3.43;;;2.73;;
4748;SDS011;2388;53.582;9.962;2023-03-11T14:13:51;1.93;;;0.50;;
4748;SDS011;2388;53.582;9.962;2023-03-11T14:16:38;5.70;;;1.10;;
4748;SDS011;2388;53.582;9.962;2023-03-11T14:19:14;4.33;;;2.87;;
4748;SDS011;2388;53.582;9.962;2023-03-11T14:21:44;1.20;;;0.67;;
4748;SDS011;2388;53.582;9.962;2023-03-11T14:24:15;1.77;;;0.43;;
4748;SDS011;2388;53.582;9.962;2023-03-11T14:26:43;2.70;;;0.83;;
4748;SDS011;2388;53.582;9.962;2023-03-11T14:29:15;0.90;;;0.40;;
4748;SDS011;2388;53.582;9.962;2023-03-11T14:31:43;1.03;;;0.60;;
4748;SDS011;2388;53.582;9.962;2023-03-11T14:39:21;0.50;;;0.40;;
4748;SDS011;2388;53.582;9.962;2023-03-11T14:41:47;0.80;;;0.40;;
4748;SDS011;2388;53.582;9.962;2023-03-11T14:44:15;2.17;;;0.60;;
4748;SDS011;2388;53.582;9.962;2023-03-11T14:46:41;2.00;;;0.50;;
4748;SDS011;2388;53.582;9.962;2023-03-11T14:49:11;3.23;;;0.60;;
4748;SDS011;2388;53.582;9.962;2023-03-11T14:51:40;1.60;;;0.80;;
4748;SDS011;2388;53.582;9.962;2023-03-11T14:54:16;4.07;;;0.50;;
4748;SDS011;2388;53.582;9.962;2023-03-11T14:56:49;1.90;;;0.50;;
4748;SDS011;2388;53.582;9.962;2023-03-11T14:59:28;2.00;;;0.80;;
4748;SDS011;2388;53.582;9.962;2023-03-11T15:01:57;1.83;;;0.70;;
4748;SDS011;2388;53.582;9.962;2023-03-11T15:04:50;1.63;;;1.37;;
4748;SDS011;2388;53.582;9.962;2023-03-11T15:07:19;12.93;;;7.13;;
4748;SDS011;2388;53.582;9.962;2023-03-11T15:09:45;3.27;;;1.30;;
4748;SDS011;2388;53.582;9.962;2023-03-11T15:14:57;4.10;;;1.03;;
4748;SDS011;2388;53.582;9.962;2023-03-11T15:17:24;3.03;;;0.80;;
4748;SDS011;2388;53.582;9.962;2023-03-11T15:19:52;1.17;;;0.77;;
4748;SDS011;2388;53.582;9.962;2023-03-11T15:22:32;2.00;;;0.70;;
4748;SDS011;2388;53.582;9.962;2023-03-11T15:25:03;2.73;;;0.70;;
4748;SDS011;2388;53.582;9.962;2023-03-11T15:27:40;2.77;;;0.53;;
4748;SDS011;2388;53.582;9.962;2023-03-11T15:30:23;5.03;;;1.00;;
4748;SDS011;2388;53.582;9.962;2023-03-11T15:32:49;1.30;;;1.00;;
4748;SDS011;2388;53.582;9.962;2023-03-11T15:37:49;2.40;;;1.00;;
4748;SDS011;2388;53.582;9.962;2023-03-11T15:40:34;1.53;;;0.40;;
4748;SDS011;2388;53.582;9.962;2023-03-11T15:43:14;0.80;;;0.50;;
4748;SDS011;2388;53.582;9.962;2023-03-11T15:45:41;1.75;;;0.65;;
4748;SDS011;2388;53.582;9.962;2023-03-11T15:48:11;4.20;;;1.13;;
4748;SDS011;2388;53.582;9.962;2023-03-11T15:50:47;3.67;;;0.70;;
4748;SDS011;2388;53.582;9.962;2023-03-11T15:53:17;3.35;;;0.70;;
4748;SDS011;2388;53.582;9.962;2023-03-11T15:55:44;2.65;;;0.70;;
4748;SDS011;2388;53.582;9.962;2023-03-11T15:58:11;5.40;;;2.20;;
4748;SDS011;2388;53.582;9.962;2023-03-11T16:00:40;2.17;;;1.30;;
4748;SDS011;2388;53.582;9.962;2023-03-11T16:03:10;1.17;;;0.73;;
4748;SDS011;2388;53.582;9.962;2023-03-11T16:05:36;1.13;;;0.50;;
4748;SDS011;2388;53.582;9.962;2023-03-11T16:08:01;0.73;;;0.50;;
4748;SDS011;2388;53.582;9.962;2023-03-11T16:10:27;1.80;;;0.70;;
4748;SDS011;2388;53.582;9.962;2023-03-11T16:12:53;2.40;;;1.20;;
4748;SDS011;2388;53.582;9.962;2023-03-11T16:17:52;1.37;;;0.80;;
4748;SDS011;2388;53.582;9.962;2023-03-11T16:20:20;3.35;;;0.85;;
4748;SDS011;2388;53.582;9.962;2023-03-11T16:22:47;3.50;;;0.98;;
4748;SDS011;2388;53.582;9.962;2023-03-11T16:25:18;1.50;;;1.10;;
4748;SDS011;2388;53.582;9.962;2023-03-11T16:27:48;7.95;;;1.50;;
4748;SDS011;2388;53.582;9.962;2023-03-11T16:30:14;2.95;;;1.35;;
4748;SDS011;2388;53.582;9.962;2023-03-11T16:32:40;3.00;;;1.87;;
4748;SDS011;2388;53.582;9.962;2023-03-11T16:35:07;4.85;;;1.95;;
4748;SDS011;2388;53.582;9.962;2023-03-11T16:37:33;2.60;;;1.88;;
4748;SDS011;2388;53.582;9.962;2023-03-11T16:39:59;3.63;;;1.73;;
4748;SDS011;2388;53.582;9.962;2023-03-11T16:42:25;6.03;;;0.90;;
4748;SDS011;2388;53.582;9.962;2023-03-11T16:44:50;3.40;;;1.77;;
4748;SDS011;2388;53.582;9.962;2023-03-11T16:47:16;3.27;;;1.13;;
4748;SDS011;2388;53.582;9.962;2023-03-11T16:49:41;1.73;;;0.70;;
4748;SDS011;2388;53.582;9.962;2023-03-11T16:52:07;1.53;;;0.70;;
4748;SDS011;2388;53.582;9.962;2023-03-11T16:54:32;4.43;;;1.20;;
4748;SDS011;2388;53.582;9.962;2023-03-11T16:56:59;2.47;;;1.10;;
4748;SDS011;2388;53.582;9.962;2023-03-11T16:59:24;1.40;;;1.30;;
4748;SDS011;2388;53.582;9.962;2023-03-11T17:01:50;4.50;;;1.37;;